sensor_id;sensor_type;location;lat;lon;timestamp;pressure;altitude;pressure_sealevel;temperature;humidity
60055;BME280;45930;53.514;55.904;2023-02-19T00:00:17;49884.72;;;-149.77;44.83
60055;BME280;45930;53.514;55.904;2023-02-19T00:01:30;49888.69;;;-149.77;44.80
60055;BME280;45930;53.514;55.904;2023-02-19T00:02:31;49896.59;;;-149.77;44.81
60055;BME280;45930;53.514;55.904;2023-02-19T00:03:32;49900.56;;;-149.77;44.68
60055;BME280;45930;53.514;55.904;2023-02-19T00:04:33;49904.53;;;-149.77;44.56
60055;BME280;45930;53.514;55.904;2023-02-19T00:05:34;49900.56;;;-149.77;44.84
60055;BME280;45930;53.514;55.904;2023-02-19T00:06:35;49890.66;;;-149.77;44.64
60055;BME280;45930;53.514;55.904;2023-02-19T00:07:36;49896.59;;;-149.77;44.86
60055;BME280;45930;53.514;55.904;2023-02-19T00:08:37;49890.66;;;-149.77;44.76
60055;BME280;45930;53.514;55.904;2023-02-19T00:09:38;49864.91;;;-149.77;44.31
60055;BME280;45930;53.514;55.904;2023-02-19T00:10:39;49886.69;;;-149.77;44.57
60055;BME280;45930;53.514;55.904;2023-02-19T00:11:40;49900.56;;;-149.77;43.79
60055;BME280;45930;53.514;55.904;2023-02-19T00:12:40;49920.38;;;-149.77;43.62
60055;BME280;45930;53.514;55.904;2023-02-19T00:13:44;49896.59;;;-149.77;43.90
60055;BME280;45930;53.514;55.904;2023-02-19T00:14:45;49898.59;;;-149.77;44.11
60055;BME280;45930;53.514;55.904;2023-02-19T00:15:46;49924.34;;;-149.77;44.29
60055;BME280;45930;53.514;55.904;2023-02-19T00:16:47;49912.44;;;-149.77;44.41
60055;BME280;45930;53.514;55.904;2023-02-19T00:17:48;49892.63;;;-149.77;44.13
60055;BME280;45930;53.514;55.904;2023-02-19T00:18:50;49896.59;;;-149.77;44.02
60055;BME280;45930;53.514;55.904;2023-02-19T00:19:51;49904.53;;;-149.77;44.48
60055;BME280;45930;53.514;55.904;2023-02-19T00:20:54;49932.25;;;-149.77;44.16
60055;BME280;45930;53.514;55.904;2023-02-19T00:21:56;49906.50;;;-149.77;44.00
60055;BME280;45930;53.514;55.904;2023-02-19T00:22:57;49896.59;;;-149.77;44.25
60055;BME280;45930;53.514;55.904;2023-02-19T00:24:00;49908.50;;;-149.77;44.04
60055;BME280;45930;53.514;55.904;2023-02-19T00:25:01;49894.63;;;-149.77;43.89
60055;BME280;45930;53.514;55.904;2023-02-19T00:26:06;49900.56;;;-149.77;43.83
60055;BME280;45930;53.514;55.904;2023-02-19T00:27:07;49912.44;;;-149.77;43.85
60055;BME280;45930;53.514;55.904;2023-02-19T00:28:07;49876.78;;;-149.77;44.16
60055;BME280;45930;53.514;55.904;2023-02-19T00:29:12;49934.25;;;-149.77;44.01
60055;BME280;45930;53.514;55.904;2023-02-19T00:30:13;49902.53;;;-149.77;44.29
60055;BME280;45930;53.514;55.904;2023-02-19T00:31:21;49906.50;;;-149.77;44.33
60055;BME280;45930;53.514;55.904;2023-02-19T00:32:22;49874.81;;;-149.77;44.61
60055;BME280;45930;53.514;55.904;2023-02-19T00:33:23;49906.50;;;-149.77;44.81
60055;BME280;45930;53.514;55.904;2023-02-19T00:34:23;49914.44;;;-149.77;44.46
60055;BME280;45930;53.514;55.904;2023-02-19T00:35:24;49942.16;;;-149.77;44.65
60055;BME280;45930;53.514;55.904;2023-02-19T00:36:26;49904.53;;;-149.77;44.78
60055;BME280;45930;53.514;55.904;2023-02-19T00:37:27;49890.66;;;-149.77;44.76
60055;BME280;45930;53.514;55.904;2023-02-19T00:38:28;49904.53;;;-149.77;44.66
60055;BME280;45930;53.514;55.904;2023-02-19T00:39:29;49918.41;;;-149.77;44.51
60055;BME280;45930;53.514;55.904;2023-02-19T00:40:30;49918.41;;;-149.77;44.80
60055;BME280;45930;53.514;55.904;2023-02-19T00:41:31;49928.31;;;-149.77;45.11
60055;BME280;45930;53.514;55.904;2023-02-19T00:42:31;49952.06;;;-149.77;45.13
60055;BME280;45930;53.514;55.904;2023-02-19T00:43:32;49920.38;;;-149.77;44.67
60055;BME280;45930;53.514;55.904;2023-02-19T00:44:33;49922.34;;;-149.77;45.00
60055;BME280;45930;53.514;55.904;2023-02-19T00:45:33;49914.44;;;-149.77;44.53
60055;BME280;45930;53.514;55.904;2023-02-19T00:46:37;49900.56;;;-149.77;44.70
60055;BME280;45930;53.514;55.904;2023-02-19T00:47:38;49908.50;;;-149.77;44.86
60055;BME280;45930;53.514;55.904;2023-02-19T00:48:39;49888.69;;;-149.77;44.72
60055;BME280;45930;53.514;55.904;2023-02-19T00:49:39;49880.75;;;-149.77;44.81
60055;BME280;45930;53.514;55.904;2023-02-19T00:50:40;49912.44;;;-149.77;44.57
60055;BME280;45930;53.514;55.904;2023-02-19T00:51:41;49916.41;;;-149.77;44.62
60055;BME280;45930;53.514;55.904;2023-02-19T00:52:42;49900.56;;;-149.77;44.16
60055;BME280;45930;53.514;55.904;2023-02-19T00:53:42;49914.44;;;-149.77;44.25
60055;BME280;45930;53.514;55.904;2023-02-19T00:54:43;49952.06;;;-149.77;44.11
60055;BME280;45930;53.514;55.904;2023-02-19T00:55:44;49940.19;;;-149.77;44.51
60055;BME280;45930;53.514;55.904;2023-02-19T00:56:45;49912.44;;;-149.77;44.13
60055;BME280;45930;53.514;55.904;2023-02-19T00:57:46;49908.50;;;-149.77;44.49
60055;BME280;45930;53.514;55.904;2023-02-19T00:58:47;49928.31;;;-149.77;44.25
60055;BME280;45930;53.514;55.904;2023-02-19T00:59:51;49884.72;;;-149.77;44.38
60055;BME280;45930;53.514;55.904;2023-02-19T01:00:52;49906.50;;;-149.77;44.75
60055;BME280;45930;53.514;55.904;2023-02-19T01:01:53;49898.59;;;-149.77;44.75
60055;BME280;45930;53.514;55.904;2023-02-19T01:02:54;49928.31;;;-149.77;45.17
60055;BME280;45930;53.514;55.904;2023-02-19T01:03:54;49904.53;;;-149.77;45.26
60055;BME280;45930;53.514;55.904;2023-02-19T01:04:55;49892.63;;;-149.77;44.89
60055;BME280;45930;53.514;55.904;2023-02-19T01:05:56;49928.31;;;-149.77;44.95
60055;BME280;45930;53.514;55.904;2023-02-19T01:06:57;49936.22;;;-149.77;45.12
60055;BME280;45930;53.514;55.904;2023-02-19T01:07:57;49900.56;;;-149.77;45.08
60055;BME280;45930;53.514;55.904;2023-02-19T01:08:58;49912.44;;;-149.77;44.90
60055;BME280;45930;53.514;55.904;2023-02-19T01:09:59;49908.50;;;-149.77;44.92
60055;BME280;45930;53.514;55.904;2023-02-19T01:11:01;49870.84;;;-149.77;44.80
60055;BME280;45930;53.514;55.904;2023-02-19T01:12:02;49914.44;;;-149.77;44.63
60055;BME280;45930;53.514;55.904;2023-02-19T01:13:02;49904.53;;;-149.77;44.92
60055;BME280;45930;53.514;55.904;2023-02-19T01:14:03;49940.19;;;-149.77;44.87
60055;BME280;45930;53.514;55.904;2023-02-19T01:15:04;49967.94;;;-149.77;44.53
60055;BME280;45930;53.514;55.904;2023-02-19T01:16:13;49963.97;;;-149.77;44.43
60055;BME280;45930;53.514;55.904;2023-02-19T01:17:14;49934.25;;;-149.77;44.78
60055;BME280;45930;53.514;55.904;2023-02-19T01:18:14;49910.47;;;-149.77;44.88
60055;BME280;45930;53.514;55.904;2023-02-19T01:19:15;49920.38;;;-149.77;44.80
60055;BME280;45930;53.514;55.904;2023-02-19T01:20:16;49904.53;;;-149.77;44.87
60055;BME280;45930;53.514;55.904;2023-02-19T01:21:22;49924.34;;;-149.77;44.81
60055;BME280;45930;53.514;55.904;2023-02-19T01:22:23;49890.66;;;-149.77;44.72
60055;BME280;45930;53.514;55.904;2023-02-19T01:23:24;49898.59;;;-149.77;45.14
60055;BME280;45930;53.514;55.904;2023-02-19T01:24:25;49908.50;;;-149.77;44.62
60055;BME280;45930;53.514;55.904;2023-02-19T01:25:26;49942.16;;;-149.77;44.91
60055;BME280;45930;53.514;55.904;2023-02-19T01:26:29;49906.50;;;-149.77;44.39
60055;BME280;45930;53.514;55.904;2023-02-19T01:27:30;49908.50;;;-149.77;44.36
60055;BME280;45930;53.514;55.904;2023-02-19T01:28:31;49936.22;;;-149.77;44.54
60055;BME280;45930;53.514;55.904;2023-02-19T01:29:32;49948.13;;;-149.77;44.66
60055;BME280;45930;53.514;55.904;2023-02-19T01:30:36;49934.25;;;-149.77;44.13
60055;BME280;45930;53.514;55.904;2023-02-19T01:31:38;49965.94;;;-149.77;44.60
60055;BME280;45930;53.514;55.904;2023-02-19T01:32:40;49967.94;;;-149.77;44.61
60055;BME280;45930;53.514;55.904;2023-02-19T01:33:45;49938.22;;;-149.77;44.26
60055;BME280;45930;53.514;55.904;2023-02-19T01:34:46;49924.34;;;-149.77;44.05
60055;BME280;45930;53.514;55.904;2023-02-19T01:35:47;49952.06;;;-149.77;44.99
60055;BME280;45930;53.514;55.904;2023-02-19T01:36:47;49902.53;;;-149.77;44.69
60055;BME280;45930;53.514;55.904;2023-02-19T01:37:48;49942.16;;;-149.77;44.68
60055;BME280;45930;53.514;55.904;2023-02-19T01:38:49;49969.91;;;-149.77;44.76
60055;BME280;45930;53.514;55.904;2023-02-19T01:39:50;49900.56;;;-149.77;45.43
60055;BME280;45930;53.514;55.904;2023-02-19T01:40:59;49928.31;;;-149.77;45.14
60055;BME280;45930;53.514;55.904;2023-02-19T01:42:00;49952.06;;;-149.77;44.93
60055;BME280;45930;53.514;55.904;2023-02-19T01:43:02;49922.34;;;-149.77;44.82
60055;BME280;45930;53.514;55.904;2023-02-19T01:45:10;49904.53;;;-149.77;45.13
60055;BME280;45930;53.514;55.904;2023-02-19T01:45:36;49924.34;;;-149.77;44.42
60055;BME280;45930;53.514;55.904;2023-02-19T01:46:40;49932.25;;;-149.77;44.22
60055;BME280;45930;53.514;55.904;2023-02-19T01:47:41;49944.16;;;-149.77;44.01
60055;BME280;45930;53.514;55.904;2023-02-19T01:48:41;49938.22;;;-149.77;44.44
60055;BME280;45930;53.514;55.904;2023-02-19T01:49:49;49910.47;;;-149.77;44.71
60055;BME280;45930;53.514;55.904;2023-02-19T01:50:57;49932.25;;;-149.77;44.11
60055;BME280;45930;53.514;55.904;2023-02-19T01:52:13;49914.44;;;-149.77;44.56
60055;BME280;45930;53.514;55.904;2023-02-19T01:53:19;49938.22;;;-149.77;44.67
60055;BME280;45930;53.514;55.904;2023-02-19T01:54:21;49952.06;;;-149.77;44.82
60055;BME280;45930;53.514;55.904;2023-02-19T01:55:24;49930.28;;;-149.77;44.89
60055;BME280;45930;53.514;55.904;2023-02-19T01:56:26;49932.25;;;-149.77;44.78
60055;BME280;45930;53.514;55.904;2023-02-19T01:57:33;49942.16;;;-149.77;44.46
60055;BME280;45930;53.514;55.904;2023-02-19T01:58:36;49920.38;;;-149.77;44.75
60055;BME280;45930;53.514;55.904;2023-02-19T01:59:38;49916.41;;;-149.77;44.87
60055;BME280;45930;53.514;55.904;2023-02-19T02:00:40;49900.56;;;-149.77;44.43
60055;BME280;45930;53.514;55.904;2023-02-19T02:01:40;49912.44;;;-149.77;44.42
60055;BME280;45930;53.514;55.904;2023-02-19T02:02:47;49922.34;;;-149.77;44.88
60055;BME280;45930;53.514;55.904;2023-02-19T02:03:48;49894.63;;;-149.77;45.06
60055;BME280;45930;53.514;55.904;2023-02-19T02:04:50;49898.59;;;-149.77;44.65
60055;BME280;45930;53.514;55.904;2023-02-19T02:05:55;49904.53;;;-149.77;44.98
60055;BME280;45930;53.514;55.904;2023-02-19T02:06:58;49928.31;;;-149.77;44.82
60055;BME280;45930;53.514;55.904;2023-02-19T02:08:02;49936.22;;;-149.77;44.73
60055;BME280;45930;53.514;55.904;2023-02-19T02:09:25;49900.56;;;-149.77;45.06
60055;BME280;45930;53.514;55.904;2023-02-19T02:10:45;49916.41;;;-149.77;44.58
60055;BME280;45930;53.514;55.904;2023-02-19T02:11:50;49900.56;;;-149.77;44.51
60055;BME280;45930;53.514;55.904;2023-02-19T02:12:55;49926.31;;;-149.77;44.31
60055;BME280;45930;53.514;55.904;2023-02-19T02:13:57;49896.59;;;-149.77;44.47
60055;BME280;45930;53.514;55.904;2023-02-19T02:14:58;49916.41;;;-149.77;44.11
60055;BME280;45930;53.514;55.904;2023-02-19T02:16:06;49900.56;;;-149.77;44.31
60055;BME280;45930;53.514;55.904;2023-02-19T02:18:34;49912.44;;;-149.77;43.72
60055;BME280;45930;53.514;55.904;2023-02-19T02:22:09;49932.25;;;-149.77;43.59
60055;BME280;45930;53.514;55.904;2023-02-19T02:23:16;49942.16;;;-149.77;44.02
60055;BME280;45930;53.514;55.904;2023-02-19T02:27:37;49918.41;;;-149.77;44.45
60055;BME280;45930;53.514;55.904;2023-02-19T02:29:05;49916.41;;;-149.77;44.38
60055;BME280;45930;53.514;55.904;2023-02-19T02:31:53;49904.53;;;-149.77;43.98
60055;BME280;45930;53.514;55.904;2023-02-19T02:34:48;49918.41;;;-149.77;43.81
60055;BME280;45930;53.514;55.904;2023-02-19T02:36:07;49914.44;;;-149.77;44.18
60055;BME280;45930;53.514;55.904;2023-02-19T02:37:11;49926.31;;;-149.77;44.39
60055;BME280;45930;53.514;55.904;2023-02-19T02:38:13;49896.59;;;-149.77;44.33
60055;BME280;45930;53.514;55.904;2023-02-19T02:39:19;49954.06;;;-149.77;43.90
60055;BME280;45930;53.514;55.904;2023-02-19T02:40:21;49956.03;;;-149.77;43.83
60055;BME280;45930;53.514;55.904;2023-02-19T02:41:22;49914.44;;;-149.77;44.63
60055;BME280;45930;53.514;55.904;2023-02-19T02:42:22;49928.31;;;-149.77;43.85
60055;BME280;45930;53.514;55.904;2023-02-19T02:43:29;49934.25;;;-149.77;44.35
60055;BME280;45930;53.514;55.904;2023-02-19T02:44:34;49904.53;;;-149.77;44.56
60055;BME280;45930;53.514;55.904;2023-02-19T02:45:35;49932.25;;;-149.77;43.99
60055;BME280;45930;53.514;55.904;2023-02-19T02:46:41;49942.16;;;-149.77;44.45
60055;BME280;45930;53.514;55.904;2023-02-19T02:47:53;49928.31;;;-149.77;44.12
60055;BME280;45930;53.514;55.904;2023-02-19T02:48:57;49902.53;;;-149.77;44.48
60055;BME280;45930;53.514;55.904;2023-02-19T02:50:01;49914.44;;;-149.77;44.43
60055;BME280;45930;53.514;55.904;2023-02-19T02:52:14;49918.41;;;-149.77;43.83
60055;BME280;45930;53.514;55.904;2023-02-19T02:53:51;49894.63;;;-149.77;44.02
60055;BME280;45930;53.514;55.904;2023-02-19T02:55:11;49952.06;;;-149.77;43.97
60055;BME280;45930;53.514;55.904;2023-02-19T02:56:13;49942.16;;;-149.77;43.96
60055;BME280;45930;53.514;55.904;2023-02-19T02:57:17;49932.25;;;-149.77;44.11
60055;BME280;45930;53.514;55.904;2023-02-19T02:58:21;49928.31;;;-149.77;43.78
60055;BME280;45930;53.514;55.904;2023-02-19T02:59:25;49938.22;;;-149.77;43.59
60055;BME280;45930;53.514;55.904;2023-02-19T03:00:28;49908.50;;;-149.77;44.21
60055;BME280;45930;53.514;55.904;2023-02-19T03:03:20;49948.13;;;-149.77;44.25
60055;BME280;45930;53.514;55.904;2023-02-19T03:05:35;49944.16;;;-149.77;44.05
60055;BME280;45930;53.514;55.904;2023-02-19T03:06:52;49934.25;;;-149.77;44.23
60055;BME280;45930;53.514;55.904;2023-02-19T03:08:04;49958.03;;;-149.77;44.23
60055;BME280;45930;53.514;55.904;2023-02-19T03:09:23;49928.31;;;-149.77;44.47
60055;BME280;45930;53.514;55.904;2023-02-19T03:11:54;49960.00;;;-149.77;44.02
60055;BME280;45930;53.514;55.904;2023-02-19T03:13:21;49938.22;;;-149.77;44.06
60055;BME280;45930;53.514;55.904;2023-02-19T03:14:46;49944.16;;;-149.77;44.48
60055;BME280;45930;53.514;55.904;2023-02-19T03:16:21;49940.19;;;-149.77;43.60
60055;BME280;45930;53.514;55.904;2023-02-19T03:17:50;49944.16;;;-149.77;43.65
60055;BME280;45930;53.514;55.904;2023-02-19T03:19:13;49906.50;;;-149.77;43.33
60055;BME280;45930;53.514;55.904;2023-02-19T03:20:22;49948.13;;;-149.77;43.25
60055;BME280;45930;53.514;55.904;2023-02-19T03:21:24;49940.19;;;-149.77;43.86
60055;BME280;45930;53.514;55.904;2023-02-19T03:22:30;49928.31;;;-149.77;43.48
60055;BME280;45930;53.514;55.904;2023-02-19T03:23:34;49983.78;;;-149.77;43.44
60055;BME280;45930;53.514;55.904;2023-02-19T03:24:59;49934.25;;;-149.77;43.15
60055;BME280;45930;53.514;55.904;2023-02-19T03:26:20;49940.19;;;-149.77;43.83
60055;BME280;45930;53.514;55.904;2023-02-19T03:27:22;49940.19;;;-149.77;43.54
60055;BME280;45930;53.514;55.904;2023-02-19T03:28:27;49973.88;;;-149.77;43.95
60055;BME280;45930;53.514;55.904;2023-02-19T03:29:50;49942.16;;;-149.77;43.17
60055;BME280;45930;53.514;55.904;2023-02-19T03:30:54;49983.78;;;-149.77;43.73
60055;BME280;45930;53.514;55.904;2023-02-19T03:31:58;49971.88;;;-149.77;43.50
60055;BME280;45930;53.514;55.904;2023-02-19T03:33:09;49954.06;;;-149.77;43.00
60055;BME280;45930;53.514;55.904;2023-02-19T03:34:16;49944.16;;;-149.77;42.79
60055;BME280;45930;53.514;55.904;2023-02-19T03:35:29;49940.19;;;-149.77;43.05
60055;BME280;45930;53.514;55.904;2023-02-19T03:36:37;49965.94;;;-149.77;42.98
60055;BME280;45930;53.514;55.904;2023-02-19T03:43:52;49983.78;;;-149.77;43.98
60055;BME280;45930;53.514;55.904;2023-02-19T03:46:27;49952.06;;;-149.77;43.66
60055;BME280;45930;53.514;55.904;2023-02-19T03:47:51;49952.06;;;-149.77;43.18
60055;BME280;45930;53.514;55.904;2023-02-19T03:49:16;49912.44;;;-149.77;43.77
60055;BME280;45930;53.514;55.904;2023-02-19T03:50:23;49914.44;;;-149.77;43.68
60055;BME280;45930;53.514;55.904;2023-02-19T03:51:38;49944.16;;;-149.77;43.88
60055;BME280;45930;53.514;55.904;2023-02-19T03:55:16;49954.06;;;-149.77;43.57
60055;BME280;45930;53.514;55.904;2023-02-19T03:56:32;49936.22;;;-149.77;43.00
60055;BME280;45930;53.514;55.904;2023-02-19T04:00:08;49942.16;;;-149.77;43.21
60055;BME280;45930;53.514;55.904;2023-02-19T04:01:23;49954.06;;;-149.77;43.85
60055;BME280;45930;53.514;55.904;2023-02-19T04:02:34;49910.47;;;-149.77;43.17
60055;BME280;45930;53.514;55.904;2023-02-19T04:04:01;49900.56;;;-149.77;43.03
60055;BME280;45930;53.514;55.904;2023-02-19T04:05:20;49950.09;;;-149.77;43.40
60055;BME280;45930;53.514;55.904;2023-02-19T04:06:28;49908.50;;;-149.77;43.05
60055;BME280;45930;53.514;55.904;2023-02-19T04:07:33;49950.09;;;-149.77;43.44
60055;BME280;45930;53.514;55.904;2023-02-19T04:08:37;49963.97;;;-149.77;43.09
60055;BME280;45930;53.514;55.904;2023-02-19T04:09:42;49938.22;;;-149.77;42.80
60055;BME280;45930;53.514;55.904;2023-02-19T04:10:46;49938.22;;;-149.77;43.03
60055;BME280;45930;53.514;55.904;2023-02-19T04:11:49;49942.16;;;-149.77;43.26
60055;BME280;45930;53.514;55.904;2023-02-19T04:12:56;49958.03;;;-149.77;43.38
60055;BME280;45930;53.514;55.904;2023-02-19T04:14:24;49960.00;;;-149.77;43.35
60055;BME280;45930;53.514;55.904;2023-02-19T04:15:30;49908.50;;;-149.77;43.35
60055;BME280;45930;53.514;55.904;2023-02-19T04:16:33;49920.38;;;-149.77;43.18
60055;BME280;45930;53.514;55.904;2023-02-19T04:17:38;49932.25;;;-149.77;43.55
60055;BME280;45930;53.514;55.904;2023-02-19T04:18:43;49948.13;;;-149.77;43.19
60055;BME280;45930;53.514;55.904;2023-02-19T04:19:47;49882.75;;;-149.77;43.20
60055;BME280;45930;53.514;55.904;2023-02-19T04:20:49;49918.41;;;-149.77;42.49
60055;BME280;45930;53.514;55.904;2023-02-19T04:21:52;49922.34;;;-149.77;42.56
60055;BME280;45930;53.514;55.904;2023-02-19T04:22:53;49944.16;;;-149.77;42.75
60055;BME280;45930;53.514;55.904;2023-02-19T04:23:58;49956.03;;;-149.77;42.10
60055;BME280;45930;53.514;55.904;2023-02-19T04:25:00;49940.19;;;-149.77;42.31
60055;BME280;45930;53.514;55.904;2023-02-19T04:26:02;49892.63;;;-149.77;42.26
60055;BME280;45930;53.514;55.904;2023-02-19T04:27:04;49920.38;;;-149.77;41.83
60055;BME280;45930;53.514;55.904;2023-02-19T04:28:07;49930.28;;;-149.77;42.10
60055;BME280;45930;53.514;55.904;2023-02-19T04:29:08;49934.25;;;-149.77;42.12
60055;BME280;45930;53.514;55.904;2023-02-19T04:30:11;49906.50;;;-149.77;41.93
60055;BME280;45930;53.514;55.904;2023-02-19T04:31:12;49963.97;;;-149.77;41.23
60055;BME280;45930;53.514;55.904;2023-02-19T04:32:13;49932.25;;;-149.77;41.86
60055;BME280;45930;53.514;55.904;2023-02-19T04:33:14;49902.53;;;-149.77;41.28
60055;BME280;45930;53.514;55.904;2023-02-19T04:34:14;49912.44;;;-149.77;41.15
60055;BME280;45930;53.514;55.904;2023-02-19T04:35:15;49916.41;;;-149.77;40.92
60055;BME280;45930;53.514;55.904;2023-02-19T04:36:16;49920.38;;;-149.77;41.18
60055;BME280;45930;53.514;55.904;2023-02-19T04:37:17;49888.69;;;-149.77;41.42
60055;BME280;45930;53.514;55.904;2023-02-19T04:38:18;49906.50;;;-149.77;41.33
60055;BME280;45930;53.514;55.904;2023-02-19T04:39:21;49918.41;;;-149.77;41.83
60055;BME280;45930;53.514;55.904;2023-02-19T04:40:22;49904.53;;;-149.77;41.68
60055;BME280;45930;53.514;55.904;2023-02-19T04:41:23;49898.59;;;-149.77;41.88
60055;BME280;45930;53.514;55.904;2023-02-19T04:42:24;49906.50;;;-149.77;42.27
60055;BME280;45930;53.514;55.904;2023-02-19T04:43:24;49910.47;;;-149.77;42.32
60055;BME280;45930;53.514;55.904;2023-02-19T04:44:25;49876.78;;;-149.77;42.35
60055;BME280;45930;53.514;55.904;2023-02-19T04:45:26;49900.56;;;-149.77;41.79
60055;BME280;45930;53.514;55.904;2023-02-19T04:46:27;49888.69;;;-149.77;41.84
60055;BME280;45930;53.514;55.904;2023-02-19T04:47:28;49876.78;;;-149.77;41.96
60055;BME280;45930;53.514;55.904;2023-02-19T04:48:28;49876.78;;;-149.77;41.95
60055;BME280;45930;53.514;55.904;2023-02-19T04:49:29;49864.91;;;-149.77;42.01
60055;BME280;45930;53.514;55.904;2023-02-19T04:50:30;49858.97;;;-149.77;42.37
60055;BME280;45930;53.514;55.904;2023-02-19T04:51:31;49878.78;;;-149.77;42.34
60055;BME280;45930;53.514;55.904;2023-02-19T04:52:32;49874.81;;;-149.77;42.42
60055;BME280;45930;53.514;55.904;2023-02-19T04:53:33;49870.84;;;-149.77;41.94
60055;BME280;45930;53.514;55.904;2023-02-19T04:54:34;49817.34;;;-149.77;42.02
60055;BME280;45930;53.514;55.904;2023-02-19T04:55:38;49855.00;;;-149.77;41.73
60055;BME280;45930;53.514;55.904;2023-02-19T04:56:42;49851.03;;;-149.77;41.69
60055;BME280;45930;53.514;55.904;2023-02-19T04:57:42;49872.84;;;-149.77;41.69
60055;BME280;45930;53.514;55.904;2023-02-19T04:58:44;49833.22;;;-149.77;41.11
60055;BME280;45930;53.514;55.904;2023-02-19T04:59:45;49845.09;;;-149.77;41.57
60055;BME280;45930;53.514;55.904;2023-02-19T05:00:50;49813.41;;;-149.77;41.11
60055;BME280;45930;53.514;55.904;2023-02-19T05:01:51;49868.88;;;-149.77;40.76
60055;BME280;45930;53.514;55.904;2023-02-19T05:02:52;49837.16;;;-149.77;41.57
60055;BME280;45930;53.514;55.904;2023-02-19T05:03:53;49864.91;;;-149.77;41.20
60055;BME280;45930;53.514;55.904;2023-02-19T05:04:53;49849.06;;;-149.77;40.95
60055;BME280;45930;53.514;55.904;2023-02-19T05:05:54;49823.31;;;-149.77;40.90
60055;BME280;45930;53.514;55.904;2023-02-19T05:06:55;49787.66;;;-149.77;40.66
60055;BME280;45930;53.514;55.904;2023-02-19T05:07:56;49847.06;;;-149.77;40.94
60055;BME280;45930;53.514;55.904;2023-02-19T05:08:57;49837.16;;;-149.77;40.92
60055;BME280;45930;53.514;55.904;2023-02-19T05:09:58;49864.91;;;-149.77;40.52
60055;BME280;45930;53.514;55.904;2023-02-19T05:11:00;49837.16;;;-149.77;40.52
60055;BME280;45930;53.514;55.904;2023-02-19T05:12:02;49845.09;;;-149.77;40.78
60055;BME280;45930;53.514;55.904;2023-02-19T05:13:03;49819.34;;;-149.77;41.04
60055;BME280;45930;53.514;55.904;2023-02-19T05:14:04;49839.16;;;-149.77;40.31
60055;BME280;45930;53.514;55.904;2023-02-19T05:15:04;49821.31;;;-149.77;41.00
60055;BME280;45930;53.514;55.904;2023-02-19T05:16:11;49805.47;;;-149.77;41.03
60055;BME280;45930;53.514;55.904;2023-02-19T05:17:15;49827.25;;;-149.77;40.49
60055;BME280;45930;53.514;55.904;2023-02-19T05:18:16;49809.44;;;-149.77;40.52
60055;BME280;45930;53.514;55.904;2023-02-19T05:19:17;49855.00;;;-149.77;40.72
60055;BME280;45930;53.514;55.904;2023-02-19T05:20:17;49817.34;;;-149.77;40.33
60055;BME280;45930;53.514;55.904;2023-02-19T05:21:18;49775.75;;;-149.77;40.66
60055;BME280;45930;53.514;55.904;2023-02-19T05:22:19;49821.31;;;-149.77;40.41
60055;BME280;45930;53.514;55.904;2023-02-19T05:23:20;49791.59;;;-149.77;39.66
60055;BME280;45930;53.514;55.904;2023-02-19T05:24:21;49805.47;;;-149.77;40.15
60055;BME280;45930;53.514;55.904;2023-02-19T05:25:23;49821.31;;;-149.77;40.03
60055;BME280;45930;53.514;55.904;2023-02-19T05:26:24;49811.41;;;-149.77;39.75
60055;BME280;45930;53.514;55.904;2023-02-19T05:27:26;49807.47;;;-149.77;40.20
60055;BME280;45930;53.514;55.904;2023-02-19T05:28:26;49789.63;;;-149.77;40.25
60055;BME280;45930;53.514;55.904;2023-02-19T05:29:30;49795.56;;;-149.77;39.90
60055;BME280;45930;53.514;55.904;2023-02-19T05:30:34;49807.47;;;-149.77;39.82
60055;BME280;45930;53.514;55.904;2023-02-19T05:31:35;49817.34;;;-149.77;39.60
60055;BME280;45930;53.514;55.904;2023-02-19T05:32:36;49807.47;;;-149.77;40.15
60055;BME280;45930;53.514;55.904;2023-02-19T05:33:37;49807.47;;;-149.77;40.26
60055;BME280;45930;53.514;55.904;2023-02-19T05:34:38;49797.56;;;-149.77;39.89
60055;BME280;45930;53.514;55.904;2023-02-19T05:35:43;49773.78;;;-149.77;40.32
60055;BME280;45930;53.514;55.904;2023-02-19T05:36:44;49779.72;;;-149.77;39.58
60055;BME280;45930;53.514;55.904;2023-02-19T05:37:45;49813.41;;;-149.77;40.30
60055;BME280;45930;53.514;55.904;2023-02-19T05:38:46;49757.94;;;-149.77;40.31
60055;BME280;45930;53.514;55.904;2023-02-19T05:39:48;49797.56;;;-149.77;39.60
60055;BME280;45930;53.514;55.904;2023-02-19T05:40:49;49811.41;;;-149.77;40.03
60055;BME280;45930;53.514;55.904;2023-02-19T05:41:49;49791.59;;;-149.77;40.02
60055;BME280;45930;53.514;55.904;2023-02-19T05:42:50;49726.22;;;-149.77;39.86
60055;BME280;45930;53.514;55.904;2023-02-19T05:43:51;49801.50;;;-149.77;40.00
60055;BME280;45930;53.514;55.904;2023-02-19T05:44:52;49744.06;;;-149.77;39.98
60055;BME280;45930;53.514;55.904;2023-02-19T05:45:57;49750.00;;;-149.77;39.80
60055;BME280;45930;53.514;55.904;2023-02-19T05:46:58;49742.09;;;-149.77;39.86
60055;BME280;45930;53.514;55.904;2023-02-19T05:47:59;49769.81;;;-149.77;39.58
60055;BME280;45930;53.514;55.904;2023-02-19T05:49:00;49748.03;;;-149.77;39.52
60055;BME280;45930;53.514;55.904;2023-02-19T05:50:01;49726.22;;;-149.77;39.64
60055;BME280;45930;53.514;55.904;2023-02-19T05:51:04;49773.78;;;-149.77;39.60
60055;BME280;45930;53.514;55.904;2023-02-19T05:52:06;49777.75;;;-149.77;39.27
60055;BME280;45930;53.514;55.904;2023-02-19T05:53:06;49753.97;;;-149.77;38.91
60055;BME280;45930;53.514;55.904;2023-02-19T05:54:07;49765.84;;;-149.77;38.68
60055;BME280;45930;53.514;55.904;2023-02-19T05:55:10;49785.66;;;-149.77;38.56
60055;BME280;45930;53.514;55.904;2023-02-19T05:56:36;49777.75;;;-149.77;38.85